Shineimaru No.18 — JD3667 — position and weather

sailwx.info

Track history (hours):
 
Tides and Currents Weather Stations Pressure Air Temp Water Temp Dewpoint Dewpoint Depression Visibility Wind Speed Wind Dir Waves Ship Positions

Shineimaru No.18

Last reported at 2018-Jun-20 18:20 UTC. Time now 2018-Jun-20 22:43 UTC.
Position N 34°36' E 135°04'.

Length 69 m.

Type: Cargo ship. MMSI: 431005328.

Date/timePositionNaut miles runAvg speedWind from/ knotsBaromVisibWave heightAir tempDewpointWater temp
2018-Jun-20 18:20N 34°36' E 135°04'410.7
2018-Jun-20 17:59N 34°32' E 135°05'612.1
2018-Jun-20 17:30N 34°27' E 135°05'612.1
2018-Jun-20 17:00N 34°21' E 135°04'8 9.4
2018-Jun-20 16:07N 34°13' E 135°08'1 3.0
2018-Jun-20 15:52N 34°13' E 135°09'0 0.0
2018-Jun-20 15:28N 34°13' E 135°09'0 0.0
2018-Jun-20 14:58N 34°13' E 135°09'0 0.0
2018-Jun-20 14:28N 34°13' E 135°09'0 0.0
2018-Jun-20 13:58N 34°13' E 135°09'0 0.0
2018-Jun-20 13:28N 34°13' E 135°09'0 0.0
2018-Jun-20 12:58N 34°13' E 135°09'0 0.0
2018-Jun-20 12:28N 34°13' E 135°09'0 0.0
2018-Jun-20 11:58N 34°13' E 135°09'0 0.0
2018-Jun-20 11:28N 34°13' E 135°09'0 0.0
2018-Jun-20 10:55N 34°13' E 135°09'0 0.0
2018-Jun-20 10:28N 34°13' E 135°09'0 0.0
2018-Jun-20 09:58N 34°13' E 135°09'0 0.0
2018-Jun-20 09:28N 34°13' E 135°09'0 0.0
2018-Jun-20 08:58N 34°13' E 135°09'0 0.0
2018-Jun-20 08:28N 34°13' E 135°09'0 0.0
2018-Jun-20 07:58N 34°13' E 135°09'0 0.0
2018-Jun-20 07:28N 34°13' E 135°09'0 0.0
2018-Jun-20 06:55N 34°13' E 135°09'0 0.0
2018-Jun-20 06:30N 34°13' E 135°09'0 0.0
2018-Jun-20 06:00N 34°13' E 135°09'0 0.0
2018-Jun-20 05:30N 34°13' E 135°09'0 0.0
2018-Jun-20 05:00N 34°13' E 135°09'0 0.0
2018-Jun-20 04:30N 34°13' E 135°09'0 0.0
2018-Jun-20 04:00N 34°13' E 135°09'0 0.0
2018-Jun-20 03:30N 34°13' E 135°09'2 0.5
2018-Jun-19 22:22N 34°14' E 135°06'2 6.3
2018-Jun-19 22:00N 34°13' E 135°09'0 0.3
2018-Jun-19 21:25N 34°13' E 135°09'0 0.0
2018-Jun-19 20:58N 34°13' E 135°09'0 0.0
2018-Jun-19 20:28N 34°13' E 135°09'0 0.0
2018-Jun-19 19:58N 34°13' E 135°09'0 0.0
2018-Jun-19 19:28N 34°13' E 135°09'0 0.0
2018-Jun-19 18:58N 34°13' E 135°09'0 0.0
2018-Jun-19 18:28N 34°13' E 135°09'0 0.0
2018-Jun-19 17:58N 34°13' E 135°09'0 0.0
2018-Jun-19 17:28N 34°13' E 135°09'0 0.0
2018-Jun-19 16:58N 34°13' E 135°09'0 0.0
2018-Jun-19 16:28N 34°13' E 135°09'0 0.0
2018-Jun-19 15:58N 34°13' E 135°09'0 0.0
2018-Jun-19 15:28N 34°13' E 135°09'0 0.0
2018-Jun-19 14:58N 34°13' E 135°09'0 0.0
2018-Jun-19 14:28N 34°13' E 135°09'0 0.0
2018-Jun-19 13:58N 34°13' E 135°09'0 0.0
2018-Jun-19 13:28N 34°13' E 135°09'0 0.0
2018-Jun-19 12:58N 34°13' E 135°09'0 0.0
2018-Jun-19 12:28N 34°13' E 135°09'0 0.0
2018-Jun-19 11:58N 34°13' E 135°09'0 0.0
2018-Jun-19 11:28N 34°13' E 135°09'0 0.0
2018-Jun-19 10:58N 34°13' E 135°09'0 0.0
2018-Jun-19 10:28N 34°13' E 135°09'0 0.0
2018-Jun-19 09:58N 34°13' E 135°09'0 0.0
2018-Jun-19 09:28N 34°13' E 135°09'0 0.0
2018-Jun-19 08:58N 34°13' E 135°09'0 0.0
2018-Jun-19 08:28N 34°13' E 135°09'0 0.0
2018-Jun-19 07:58N 34°13' E 135°09'0 0.0
2018-Jun-19 07:25N 34°13' E 135°09'0 0.0
2018-Jun-19 06:55N 34°13' E 135°09'0 0.0
2018-Jun-19 06:28N 34°13' E 135°09'0 0.0
2018-Jun-19 05:58N 34°13' E 135°09'0 0.0
2018-Jun-19 05:28N 34°13' E 135°09'0 0.0
2018-Jun-19 04:55N 34°13' E 135°09'0 0.0
2018-Jun-19 04:28N 34°13' E 135°09'0 0.0
2018-Jun-19 03:58N 34°13' E 135°09'0 0.0
2018-Jun-19 03:28N 34°13' E 135°09'0 0.0
2018-Jun-19 02:58N 34°13' E 135°09'0 0.0
2018-Jun-19 02:29N 34°13' E 135°09'0 0.0
2018-Jun-19 01:59N 34°13' E 135°09'2 4.4
2018-Jun-19 01:30N 34°12' E 135°07'2 0.3
2018-Jun-18 20:11N 34°11' E 135°06'211.2
2018-Jun-18 20:00N 34°13' E 135°07'2 3.1
2018-Jun-18 19:28N 34°13' E 135°09'0 0.0
2018-Jun-18 18:58N 34°13' E 135°09'0 0.0
2018-Jun-18 18:28N 34°13' E 135°09'0 0.0
2018-Jun-18 17:58N 34°13' E 135°09'0 0.0
2018-Jun-18 17:28N 34°13' E 135°09'0 0.0
2018-Jun-18 16:58N 34°13' E 135°09'0 0.0
2018-Jun-18 16:28N 34°13' E 135°09'0 0.0
2018-Jun-18 15:58N 34°13' E 135°09'0 0.0
2018-Jun-18 15:19N 34°13' E 135°09'0 0.0
2018-Jun-18 14:58N 34°13' E 135°09'0 0.0
2018-Jun-18 14:28N 34°13' E 135°09'0 0.0
2018-Jun-18 13:58N 34°13' E 135°09'0 0.0
2018-Jun-18 13:28N 34°13' E 135°09'0 0.0
2018-Jun-18 12:55N 34°13' E 135°09'0 0.0
2018-Jun-18 12:28N 34°13' E 135°09'0 0.0
2018-Jun-18 11:58N 34°13' E 135°09'0 0.0
2018-Jun-18 10:22N 34°13' E 135°09'0 0.0
2018-Jun-18 09:58N 34°13' E 135°09'0 0.0
2018-Jun-18 09:28N 34°13' E 135°09'0 0.0
2018-Jun-18 08:01N 34°13' E 135°09'0 0.0
2018-Jun-18 07:43N 34°13' E 135°09'0 0.0
2018-Jun-18 07:07N 34°13' E 135°09'0 0.0
2018-Jun-18 06:55N 34°13' E 135°09'0 0.0
2018-Jun-18 06:15N 34°13' E 135°09'1 1.8
2018-Jun-18 05:46N 34°13' E 135°08'311.3
2018-Jun-18 05:30N 34°14' E 135°05'711.0
2018-Jun-18 04:50N 34°22' E 135°06'25 5.0
2018-Jun-17 23:46N 34°42' E 135°24'2 8.2
2018-Jun-17 23:30N 34°40' E 135°22'611.9
2018-Jun-17 22:58N 34°35' E 135°18'712.4
2018-Jun-17 22:23N 34°29' E 135°13'511.9
2018-Jun-17 22:00N 34°25' E 135°10'611.7
2018-Jun-17 21:30N 34°21' E 135°06'610.7
2018-Jun-17 20:59N 34°16' E 135°03'5 8.4
2018-Jun-17 20:22N 34°13' E 135°09'0 0.0
2018-Jun-17 19:58N 34°13' E 135°09'0 0.0
2018-Jun-17 19:28N 34°13' E 135°09'0 0.0
2018-Jun-17 18:58N 34°13' E 135°09'0 0.0
2018-Jun-17 18:28N 34°13' E 135°09'0 0.0
2018-Jun-17 17:58N 34°13' E 135°09'0 0.0
2018-Jun-17 17:28N 34°13' E 135°09'0 0.0
2018-Jun-17 16:58N 34°13' E 135°09'0 0.0
2018-Jun-17 16:28N 34°13' E 135°09'0 0.0
2018-Jun-17 15:58N 34°13' E 135°09'0 0.0
2018-Jun-17 15:28N 34°13' E 135°09'0 0.0
2018-Jun-17 14:58N 34°13' E 135°09'0 0.0
2018-Jun-17 14:28N 34°13' E 135°09'0 0.0
2018-Jun-17 13:46N 34°13' E 135°09'0 0.0
2018-Jun-17 13:28N 34°13' E 135°09'0 0.0
2018-Jun-17 12:52N 34°13' E 135°09'0 0.0
2018-Jun-17 12:28N 34°13' E 135°09'0 0.0
2018-Jun-17 11:55N 34°13' E 135°09'0 0.0
2018-Jun-17 11:28N 34°13' E 135°09'0 0.0
2018-Jun-17 10:55N 34°13' E 135°09'0 0.0
2018-Jun-17 10:28N 34°13' E 135°09'0 0.0
2018-Jun-17 09:58N 34°13' E 135°09'0 0.0
2018-Jun-17 09:28N 34°13' E 135°09'0 0.0
2018-Jun-17 08:58N 34°13' E 135°09'0 0.0
2018-Jun-17 08:28N 34°13' E 135°09'0 0.0
2018-Jun-17 07:58N 34°13' E 135°09'0 0.0
2018-Jun-17 07:25N 34°13' E 135°09'0 0.0
2018-Jun-17 06:58N 34°13' E 135°09'0 0.0
2018-Jun-17 06:28N 34°13' E 135°09'0 0.0
2018-Jun-17 05:58N 34°13' E 135°09'0 0.0
2018-Jun-17 05:28N 34°13' E 135°09'0 0.0
2018-Jun-17 04:58N 34°13' E 135°09'0 0.0
2018-Jun-17 04:28N 34°13' E 135°09'0 0.0
2018-Jun-17 03:58N 34°13' E 135°09'0 0.0
2018-Jun-17 03:25N 34°13' E 135°09'0 0.0
2018-Jun-17 02:58N 34°13' E 135°09'0 0.0
2018-Jun-17 02:28N 34°13' E 135°09'0 0.0
2018-Jun-17 01:58N 34°13' E 135°09'0 0.0
2018-Jun-17 01:28N 34°13' E 135°09'0 0.0
2018-Jun-17 00:58N 34°13' E 135°09'0 0.0
2018-Jun-17 00:25N 34°13' E 135°09'0 0.0
2018-Jun-16 23:58N 34°13' E 135°09'0 0.0
2018-Jun-16 23:22N 34°13' E 135°09'0 0.0
2018-Jun-16 22:52N 34°13' E 135°09'0 0.0
2018-Jun-16 22:01N 34°13' E 135°09'0 0.0
2018-Jun-16 21:55N 34°13' E 135°09'0 0.0
2018-Jun-16 21:22N 34°13' E 135°09'0 0.0
2018-Jun-16 20:58N 34°13' E 135°09'0 0.0
2018-Jun-16 17:31N 34°13' E 135°09'0 0.0
2018-Jun-16 17:25N 34°13' E 135°09'0 0.0
2018-Jun-16 16:55N 34°13' E 135°09'0 0.0
2018-Jun-16 16:25N 34°13' E 135°09'0 0.0
2018-Jun-16 15:58N 34°13' E 135°09'0 0.0
2018-Jun-16 13:01N 34°13' E 135°09'0 0.0
2018-Jun-16 12:55N 34°13' E 135°09'0 0.0
2018-Jun-16 12:28N 34°13' E 135°09'0 0.0
2018-Jun-16 11:58N 34°13' E 135°09'0 0.0
2018-Jun-16 11:28N 34°13' E 135°09'0 0.0
2018-Jun-16 10:58N 34°13' E 135°09'0 0.0
2018-Jun-16 10:28N 34°13' E 135°09'0 0.1
2018-Jun-16 10:00N 34°13' E 135°09'4 0.5
2018-Jun-16 03:19N 34°14' E 135°05'511.9
2018-Jun-16 02:56N 34°18' E 135°04'29 5.9
2018-Jun-15 22:00N 34°42' E 135°24'0 0.6
2018-Jun-15 21:29N 34°42' E 135°24'4 8.0
2018-Jun-15 20:59N 34°39' E 135°21'611.7
2018-Jun-15 20:28N 34°34' E 135°17'511.6
2018-Jun-15 20:00N 34°29' E 135°13'611.2
2018-Jun-15 19:30N 34°25' E 135°09'611.1
2018-Jun-15 19:00N 34°20' E 135°05'510.2
2018-Jun-15 18:30N 34°15' E 135°03'5 1.8
2018-Jun-15 15:49N 34°13' E 135°09'0 0.0
2018-Jun-15 13:43N 34°13' E 135°09'0 0.0
2018-Jun-15 12:34N 34°13' E 135°09'0 0.0
2018-Jun-15 12:25N 34°13' E 135°09'0 0.0
2018-Jun-15 10:27N 34°13' E 135°09'0 0.0
2018-Jun-15 09:57N 34°13' E 135°09'0 0.0
2018-Jun-15 08:42N 34°13' E 135°09'0 0.0
2018-Jun-15 08:27N 34°13' E 135°09'0 0.0
2018-Jun-15 07:57N 34°13' E 135°09'0 0.0
2018-Jun-15 06:21N 34°13' E 135°09'1 0.5
2018-Jun-15 04:02N 34°13' E 135°08'011.9
2018-Jun-15 04:00N 34°13' E 135°07'18 1.9
2018-Jun-14 18:28N 33°57' E 134°57'38 1.1
2018-Jun-13 08:50N 34°28' E 134°30'913.4
2018-Jun-13 08:10N 34°31' E 134°41'313.5
2018-Jun-13 07:58N 34°32' E 134°44'2511.5
2018-Jun-13 05:46N 34°34' E 135°14'7 0.9
2018-Jun-12 21:25N 34°32' E 135°23'611.2
2018-Jun-12 20:55N 34°29' E 135°17'611.6
2018-Jun-12 20:25N 34°26' E 135°11'511.4
2018-Jun-12 19:59N 34°22' E 135°07'611.9
2018-Jun-12 19:27N 34°16' E 135°03'610.0
2018-Jun-12 18:53N 34°13' E 135°09'0 0.2
2018-Jun-12 18:19N 34°13' E 135°09'0 0.0
2018-Jun-12 16:43N 34°13' E 135°09'0 0.0
2018-Jun-12 16:25N 34°13' E 135°09'0 0.0
2018-Jun-12 15:55N 34°13' E 135°09'0 0.0
2018-Jun-12 15:13N 34°13' E 135°09'0 0.0
2018-Jun-12 09:25N 34°13' E 135°09'1 0.3
2018-Jun-12 06:46N 34°13' E 135°08'1 1.8
2018-Jun-12 06:19N 34°14' E 135°08'0 0.0
2018-Jun-12 05:58N 34°14' E 135°08'0 0.0
2018-Jun-12 05:16N 34°14' E 135°08'0 0.0
2018-Jun-12 04:58N 34°14' E 135°08'0 0.0
2018-Jun-12 02:41N 34°14' E 135°08'0 0.4
2018-Jun-12 02:30N 34°14' E 135°08'3 5.9
2018-Jun-12 01:56N 34°12' E 135°05'2 0.1
2018-Jun-10 21:48N 34°13' E 135°07'2 4.4
2018-Jun-10 21:22N 34°13' E 135°09'0 0.0
2018-Jun-10 20:58N 34°13' E 135°09'0 0.0
2018-Jun-10 20:28N 34°13' E 135°09'0 0.0
2018-Jun-10 19:58N 34°13' E 135°09'0 0.0
2018-Jun-10 19:28N 34°13' E 135°09'0 0.0
2018-Jun-10 18:58N 34°13' E 135°09'0 0.0
2018-Jun-10 18:28N 34°13' E 135°09'  
Track history (hours):
 
Tides and Currents Weather Stations Pressure Air Temp Water Temp Dewpoint Dewpoint Depression Visibility Wind Speed Wind Dir Waves Ship Positions

Shineimaru No.18

Last reported at 2018-Jun-20 18:20 UTC. Time now 2018-Jun-20 22:43 UTC.
Position N 34°36' E 135°04'.

Length 69 m.

Type: Cargo ship. MMSI: 431005328.

Date/timePositionNaut miles runAvg speedWind from/ knotsBaromVisibWave heightAir tempDewpointWater temp
2018-Jun-20 18:20N 34°36' E 135°04'410.7
2018-Jun-20 17:59N 34°32' E 135°05'612.1
2018-Jun-20 17:30N 34°27' E 135°05'612.1
2018-Jun-20 17:00N 34°21' E 135°04'8 9.4
2018-Jun-20 16:07N 34°13' E 135°08'1 3.0
2018-Jun-20 15:52N 34°13' E 135°09'0 0.0
2018-Jun-20 15:28N 34°13' E 135°09'0 0.0
2018-Jun-20 14:58N 34°13' E 135°09'0 0.0
2018-Jun-20 14:28N 34°13' E 135°09'0 0.0
2018-Jun-20 13:58N 34°13' E 135°09'0 0.0
2018-Jun-20 13:28N 34°13' E 135°09'0 0.0
2018-Jun-20 12:58N 34°13' E 135°09'0 0.0
2018-Jun-20 12:28N 34°13' E 135°09'0 0.0
2018-Jun-20 11:58N 34°13' E 135°09'0 0.0
2018-Jun-20 11:28N 34°13' E 135°09'0 0.0
2018-Jun-20 10:55N 34°13' E 135°09'0 0.0
2018-Jun-20 10:28N 34°13' E 135°09'0 0.0
2018-Jun-20 09:58N 34°13' E 135°09'0 0.0
2018-Jun-20 09:28N 34°13' E 135°09'0 0.0
2018-Jun-20 08:58N 34°13' E 135°09'0 0.0
2018-Jun-20 08:28N 34°13' E 135°09'0 0.0
2018-Jun-20 07:58N 34°13' E 135°09'0 0.0
2018-Jun-20 07:28N 34°13' E 135°09'0 0.0
2018-Jun-20 06:55N 34°13' E 135°09'0 0.0
2018-Jun-20 06:30N 34°13' E 135°09'0 0.0
2018-Jun-20 06:00N 34°13' E 135°09'0 0.0
2018-Jun-20 05:30N 34°13' E 135°09'0 0.0
2018-Jun-20 05:00N 34°13' E 135°09'0 0.0
2018-Jun-20 04:30N 34°13' E 135°09'0 0.0
2018-Jun-20 04:00N 34°13' E 135°09'0 0.0
2018-Jun-20 03:30N 34°13' E 135°09'2 0.5
2018-Jun-19 22:22N 34°14' E 135°06'2 6.3
2018-Jun-19 22:00N 34°13' E 135°09'0 0.3
2018-Jun-19 21:25N 34°13' E 135°09'0 0.0
2018-Jun-19 20:58N 34°13' E 135°09'0 0.0
2018-Jun-19 20:28N 34°13' E 135°09'0 0.0
2018-Jun-19 19:58N 34°13' E 135°09'0 0.0
2018-Jun-19 19:28N 34°13' E 135°09'0 0.0
2018-Jun-19 18:58N 34°13' E 135°09'0 0.0
2018-Jun-19 18:28N 34°13' E 135°09'0 0.0
2018-Jun-19 17:58N 34°13' E 135°09'0 0.0
2018-Jun-19 17:28N 34°13' E 135°09'0 0.0
2018-Jun-19 16:58N 34°13' E 135°09'0 0.0
2018-Jun-19 16:28N 34°13' E 135°09'0 0.0
2018-Jun-19 15:58N 34°13' E 135°09'0 0.0
2018-Jun-19 15:28N 34°13' E 135°09'0 0.0
2018-Jun-19 14:58N 34°13' E 135°09'0 0.0
2018-Jun-19 14:28N 34°13' E 135°09'0 0.0
2018-Jun-19 13:58N 34°13' E 135°09'0 0.0
2018-Jun-19 13:28N 34°13' E 135°09'0 0.0
2018-Jun-19 12:58N 34°13' E 135°09'0 0.0
2018-Jun-19 12:28N 34°13' E 135°09'0 0.0
2018-Jun-19 11:58N 34°13' E 135°09'0 0.0
2018-Jun-19 11:28N 34°13' E 135°09'0 0.0
2018-Jun-19 10:58N 34°13' E 135°09'0 0.0
2018-Jun-19 10:28N 34°13' E 135°09'0 0.0
2018-Jun-19 09:58N 34°13' E 135°09'0 0.0
2018-Jun-19 09:28N 34°13' E 135°09'0 0.0
2018-Jun-19 08:58N 34°13' E 135°09'0 0.0
2018-Jun-19 08:28N 34°13' E 135°09'0 0.0
2018-Jun-19 07:58N 34°13' E 135°09'0 0.0
2018-Jun-19 07:25N 34°13' E 135°09'0 0.0
2018-Jun-19 06:55N 34°13' E 135°09'0 0.0
2018-Jun-19 06:28N 34°13' E 135°09'0 0.0
2018-Jun-19 05:58N 34°13' E 135°09'0 0.0
2018-Jun-19 05:28N 34°13' E 135°09'0 0.0
2018-Jun-19 04:55N 34°13' E 135°09'0 0.0
2018-Jun-19 04:28N 34°13' E 135°09'0 0.0
2018-Jun-19 03:58N 34°13' E 135°09'0 0.0
2018-Jun-19 03:28N 34°13' E 135°09'0 0.0
2018-Jun-19 02:58N 34°13' E 135°09'0 0.0
2018-Jun-19 02:29N 34°13' E 135°09'0 0.0
2018-Jun-19 01:59N 34°13' E 135°09'2 4.4
2018-Jun-19 01:30N 34°12' E 135°07'2 0.3
2018-Jun-18 20:11N 34°11' E 135°06'211.2
2018-Jun-18 20:00N 34°13' E 135°07'2 3.1
2018-Jun-18 19:28N 34°13' E 135°09'0 0.0
2018-Jun-18 18:58N 34°13' E 135°09'0 0.0
2018-Jun-18 18:28N 34°13' E 135°09'0 0.0
2018-Jun-18 17:58N 34°13' E 135°09'0 0.0
2018-Jun-18 17:28N 34°13' E 135°09'0 0.0
2018-Jun-18 16:58N 34°13' E 135°09'0 0.0
2018-Jun-18 16:28N 34°13' E 135°09'0 0.0
2018-Jun-18 15:58N 34°13' E 135°09'0 0.0
2018-Jun-18 15:19N 34°13' E 135°09'0 0.0
2018-Jun-18 14:58N 34°13' E 135°09'0 0.0
2018-Jun-18 14:28N 34°13' E 135°09'0 0.0
2018-Jun-18 13:58N 34°13' E 135°09'0 0.0
2018-Jun-18 13:28N 34°13' E 135°09'0 0.0
2018-Jun-18 12:55N 34°13' E 135°09'0 0.0
2018-Jun-18 12:28N 34°13' E 135°09'0 0.0
2018-Jun-18 11:58N 34°13' E 135°09'0 0.0
2018-Jun-18 10:22N 34°13' E 135°09'0 0.0
2018-Jun-18 09:58N 34°13' E 135°09'0 0.0
2018-Jun-18 09:28N 34°13' E 135°09'0 0.0
2018-Jun-18 08:01N 34°13' E 135°09'0 0.0
2018-Jun-18 07:43N 34°13' E 135°09'0 0.0
2018-Jun-18 07:07N 34°13' E 135°09'0 0.0
2018-Jun-18 06:55N 34°13' E 135°09'0 0.0
2018-Jun-18 06:15N 34°13' E 135°09'1 1.8
2018-Jun-18 05:46N 34°13' E 135°08'311.3
2018-Jun-18 05:30N 34°14' E 135°05'711.0
2018-Jun-18 04:50N 34°22' E 135°06'25 5.0
2018-Jun-17 23:46N 34°42' E 135°24'2 8.2
2018-Jun-17 23:30N 34°40' E 135°22'611.9
2018-Jun-17 22:58N 34°35' E 135°18'712.4
2018-Jun-17 22:23N 34°29' E 135°13'511.9
2018-Jun-17 22:00N 34°25' E 135°10'611.7
2018-Jun-17 21:30N 34°21' E 135°06'610.7
2018-Jun-17 20:59N 34°16' E 135°03'5 8.4
2018-Jun-17 20:22N 34°13' E 135°09'0 0.0
2018-Jun-17 19:58N 34°13' E 135°09'0 0.0
2018-Jun-17 19:28N 34°13' E 135°09'0 0.0
2018-Jun-17 18:58N 34°13' E 135°09'0 0.0
2018-Jun-17 18:28N 34°13' E 135°09'0 0.0
2018-Jun-17 17:58N 34°13' E 135°09'0 0.0
2018-Jun-17 17:28N 34°13' E 135°09'0 0.0
2018-Jun-17 16:58N 34°13' E 135°09'0 0.0
2018-Jun-17 16:28N 34°13' E 135°09'0 0.0
2018-Jun-17 15:58N 34°13' E 135°09'0 0.0
2018-Jun-17 15:28N 34°13' E 135°09'0 0.0
2018-Jun-17 14:58N 34°13' E 135°09'0 0.0
2018-Jun-17 14:28N 34°13' E 135°09'0 0.0
2018-Jun-17 13:46N 34°13' E 135°09'0 0.0
2018-Jun-17 13:28N 34°13' E 135°09'0 0.0
2018-Jun-17 12:52N 34°13' E 135°09'0 0.0
2018-Jun-17 12:28N 34°13' E 135°09'0 0.0
2018-Jun-17 11:55N 34°13' E 135°09'0 0.0
2018-Jun-17 11:28N 34°13' E 135°09'0 0.0
2018-Jun-17 10:55N 34°13' E 135°09'0 0.0
2018-Jun-17 10:28N 34°13' E 135°09'0 0.0
2018-Jun-17 09:58N 34°13' E 135°09'0 0.0
2018-Jun-17 09:28N 34°13' E 135°09'0 0.0
2018-Jun-17 08:58N 34°13' E 135°09'0 0.0
2018-Jun-17 08:28N 34°13' E 135°09'0 0.0
2018-Jun-17 07:58N 34°13' E 135°09'0 0.0
2018-Jun-17 07:25N 34°13' E 135°09'0 0.0
2018-Jun-17 06:58N 34°13' E 135°09'0 0.0
2018-Jun-17 06:28N 34°13' E 135°09'0 0.0
2018-Jun-17 05:58N 34°13' E 135°09'0 0.0
2018-Jun-17 05:28N 34°13' E 135°09'0 0.0
2018-Jun-17 04:58N 34°13' E 135°09'0 0.0
2018-Jun-17 04:28N 34°13' E 135°09'0 0.0
2018-Jun-17 03:58N 34°13' E 135°09'0 0.0
2018-Jun-17 03:25N 34°13' E 135°09'0 0.0
2018-Jun-17 02:58N 34°13' E 135°09'0 0.0
2018-Jun-17 02:28N 34°13' E 135°09'0 0.0
2018-Jun-17 01:58N 34°13' E 135°09'0 0.0
2018-Jun-17 01:28N 34°13' E 135°09'0 0.0
2018-Jun-17 00:58N 34°13' E 135°09'0 0.0
2018-Jun-17 00:25N 34°13' E 135°09'0 0.0
2018-Jun-16 23:58N 34°13' E 135°09'0 0.0
2018-Jun-16 23:22N 34°13' E 135°09'0 0.0
2018-Jun-16 22:52N 34°13' E 135°09'0 0.0
2018-Jun-16 22:01N 34°13' E 135°09'0 0.0
2018-Jun-16 21:55N 34°13' E 135°09'0 0.0
2018-Jun-16 21:22N 34°13' E 135°09'0 0.0
2018-Jun-16 20:58N 34°13' E 135°09'0 0.0
2018-Jun-16 17:31N 34°13' E 135°09'0 0.0
2018-Jun-16 17:25N 34°13' E 135°09'0 0.0
2018-Jun-16 16:55N 34°13' E 135°09'0 0.0
2018-Jun-16 16:25N 34°13' E 135°09'0 0.0
2018-Jun-16 15:58N 34°13' E 135°09'0 0.0
2018-Jun-16 13:01N 34°13' E 135°09'0 0.0
2018-Jun-16 12:55N 34°13' E 135°09'0 0.0
2018-Jun-16 12:28N 34°13' E 135°09'0 0.0
2018-Jun-16 11:58N 34°13' E 135°09'0 0.0
2018-Jun-16 11:28N 34°13' E 135°09'0 0.0
2018-Jun-16 10:58N 34°13' E 135°09'0 0.0
2018-Jun-16 10:28N 34°13' E 135°09'0 0.1
2018-Jun-16 10:00N 34°13' E 135°09'4 0.5
2018-Jun-16 03:19N 34°14' E 135°05'511.9
2018-Jun-16 02:56N 34°18' E 135°04'29 5.9
2018-Jun-15 22:00N 34°42' E 135°24'0 0.6
2018-Jun-15 21:29N 34°42' E 135°24'4 8.0
2018-Jun-15 20:59N 34°39' E 135°21'611.7
2018-Jun-15 20:28N 34°34' E 135°17'511.6
2018-Jun-15 20:00N 34°29' E 135°13'611.2
2018-Jun-15 19:30N 34°25' E 135°09'611.1
2018-Jun-15 19:00N 34°20' E 135°05'510.2
2018-Jun-15 18:30N 34°15' E 135°03'5 1.8
2018-Jun-15 15:49N 34°13' E 135°09'0 0.0
2018-Jun-15 13:43N 34°13' E 135°09'0 0.0
2018-Jun-15 12:34N 34°13' E 135°09'0 0.0
2018-Jun-15 12:25N 34°13' E 135°09'0 0.0
2018-Jun-15 10:27N 34°13' E 135°09'0 0.0
2018-Jun-15 09:57N 34°13' E 135°09'0 0.0
2018-Jun-15 08:42N 34°13' E 135°09'0 0.0
2018-Jun-15 08:27N 34°13' E 135°09'0 0.0
2018-Jun-15 07:57N 34°13' E 135°09'0 0.0
2018-Jun-15 06:21N 34°13' E 135°09'1 0.5
2018-Jun-15 04:02N 34°13' E 135°08'011.9
2018-Jun-15 04:00N 34°13' E 135°07'18 1.9
2018-Jun-14 18:28N 33°57' E 134°57'38 1.1
2018-Jun-13 08:50N 34°28' E 134°30'913.4
2018-Jun-13 08:10N 34°31' E 134°41'313.5
2018-Jun-13 07:58N 34°32' E 134°44'2511.5
2018-Jun-13 05:46N 34°34' E 135°14'7 0.9
2018-Jun-12 21:25N 34°32' E 135°23'611.2
2018-Jun-12 20:55N 34°29' E 135°17'611.6
2018-Jun-12 20:25N 34°26' E 135°11'511.4
2018-Jun-12 19:59N 34°22' E 135°07'611.9
2018-Jun-12 19:27N 34°16' E 135°03'610.0
2018-Jun-12 18:53N 34°13' E 135°09'0 0.2
2018-Jun-12 18:19N 34°13' E 135°09'0 0.0
2018-Jun-12 16:43N 34°13' E 135°09'0 0.0
2018-Jun-12 16:25N 34°13' E 135°09'0 0.0
2018-Jun-12 15:55N 34°13' E 135°09'0 0.0
2018-Jun-12 15:13N 34°13' E 135°09'0 0.0
2018-Jun-12 09:25N 34°13' E 135°09'1 0.3
2018-Jun-12 06:46N 34°13' E 135°08'1 1.8
2018-Jun-12 06:19N 34°14' E 135°08'0 0.0
2018-Jun-12 05:58N 34°14' E 135°08'0 0.0
2018-Jun-12 05:16N 34°14' E 135°08'0 0.0
2018-Jun-12 04:58N 34°14' E 135°08'0 0.0
2018-Jun-12 02:41N 34°14' E 135°08'0 0.4
2018-Jun-12 02:30N 34°14' E 135°08'3 5.9
2018-Jun-12 01:56N 34°12' E 135°05'2 0.1
2018-Jun-10 21:48N 34°13' E 135°07'2 4.4
2018-Jun-10 21:22N 34°13' E 135°09'0 0.0
2018-Jun-10 20:58N 34°13' E 135°09'0 0.0
2018-Jun-10 20:28N 34°13' E 135°09'0 0.0
2018-Jun-10 19:58N 34°13' E 135°09'0 0.0
2018-Jun-10 19:28N 34°13' E 135°09'0 0.0
2018-Jun-10 18:58N 34°13' E 135°09'0 0.0
2018-Jun-10 18:28N 34°13' E 135°09'  

Dump ship's entire track history